createdAt,value
2019-05-07T00:01:24.476Z,99.90
2019-05-07T00:03:53.413Z,99.90
2019-05-07T00:06:23.080Z,99.90
2019-05-07T00:08:52.308Z,99.90
2019-05-07T00:11:22.366Z,99.90
2019-05-07T00:13:52.237Z,99.90
2019-05-07T00:16:22.385Z,99.90
2019-05-07T00:18:52.536Z,99.90
2019-05-07T00:21:23.337Z,99.90
2019-05-07T00:23:52.754Z,99.90
2019-05-07T00:26:22.633Z,99.90
2019-05-07T00:28:52.730Z,99.90
2019-05-07T00:31:23.324Z,99.90
2019-05-07T00:33:52.661Z,99.90
2019-05-07T00:36:42.059Z,99.90
2019-05-07T00:39:22.012Z,99.90
2019-05-07T00:41:57.614Z,99.90
2019-05-07T00:44:26.905Z,99.90
2019-05-07T00:46:55.721Z,99.90
2019-05-07T00:49:26.209Z,99.90
2019-05-07T00:51:55.117Z,99.90
2019-05-07T00:54:24.023Z,99.90
2019-05-07T00:56:53.124Z,99.90
2019-05-07T00:59:22.606Z,99.90
2019-05-07T01:01:52.825Z,99.90
2019-05-07T01:04:22.910Z,99.90
2019-05-07T01:06:53.236Z,99.90
2019-05-07T01:09:22.873Z,99.90
2019-05-07T01:11:52.495Z,99.90
2019-05-07T01:14:22.878Z,99.90
2019-05-07T01:16:52.902Z,99.90
2019-05-07T01:19:22.062Z,99.90
2019-05-07T01:21:52.520Z,99.90
2019-05-07T01:24:23.338Z,99.90
2019-05-07T01:26:53.036Z,99.90
2019-05-07T01:29:22.673Z,99.90
2019-05-07T01:32:03.186Z,99.90
2019-05-07T01:34:44.660Z,99.90
2019-05-07T01:37:13.548Z,99.90
2019-05-07T01:39:42.443Z,99.90
2019-05-07T01:42:12.762Z,99.90
2019-05-07T01:44:42.094Z,99.90
2019-05-07T01:47:13.169Z,99.90
2019-05-07T01:49:42.272Z,99.90
2019-05-07T01:52:13.299Z,99.90
2019-05-07T01:54:42.568Z,99.90
2019-05-07T01:57:12.283Z,99.90
2019-05-07T01:59:42.715Z,99.90
2019-05-07T02:02:26.902Z,99.90
2019-05-07T02:05:05.104Z,99.90
2019-05-07T02:07:38.296Z,99.90
2019-05-07T02:10:17.485Z,99.90
2019-05-07T02:12:46.305Z,99.90
2019-05-07T02:15:15.297Z,99.90
2019-05-07T02:17:44.101Z,99.90
2019-05-07T02:20:13.236Z,99.90
2019-05-07T02:22:42.852Z,99.90
2019-05-07T02:25:12.687Z,99.90
2019-05-07T02:27:42.163Z,99.90
2019-05-07T02:30:14.702Z,99.90
2019-05-07T02:32:43.212Z,99.90
2019-05-07T02:35:13.586Z,99.90
2019-05-07T02:37:56.813Z,99.90
2019-05-07T02:40:33.831Z,99.90
2019-05-07T02:43:02.925Z,99.90
2019-05-07T02:45:54.145Z,99.90
2019-05-07T02:48:26.210Z,99.90
2019-05-07T02:51:04.143Z,99.90
2019-05-07T02:53:55.234Z,99.90
2019-05-07T02:56:24.165Z,99.90
2019-05-07T02:58:53.146Z,99.90
2019-05-07T03:01:22.687Z,99.90
2019-05-07T03:03:52.840Z,99.90
2019-05-07T03:06:23.319Z,99.90
2019-05-07T03:08:53.459Z,99.90
2019-05-07T03:11:23.005Z,99.90
2019-05-07T03:13:53.733Z,99.90
2019-05-07T03:16:38.841Z,99.90
2019-05-07T03:18:53.809Z,99.90
2019-05-07T03:21:23.787Z,99.90
2019-05-07T03:24:16.298Z,99.90
2019-05-07T03:26:46.284Z,99.90
2019-05-07T03:29:19.441Z,99.90
2019-05-07T03:31:57.487Z,99.90
2019-05-07T03:34:46.405Z,99.90
2019-05-07T03:37:15.898Z,99.90
2019-05-07T03:39:44.789Z,99.90
2019-05-07T03:42:13.847Z,99.90
2019-05-07T03:44:48.842Z,99.90
2019-05-07T03:47:43.897Z,99.90
2019-05-07T03:50:14.994Z,99.90
2019-05-07T03:52:44.127Z,99.90
2019-05-07T03:55:14.743Z,99.90
2019-05-07T03:57:44.097Z,99.90
2019-05-07T04:00:13.809Z,99.90
2019-05-07T04:02:43.831Z,99.90
2019-05-07T04:05:14.169Z,99.90
2019-05-07T04:07:43.482Z,99.90
2019-05-07T04:10:14.942Z,99.90
2019-05-07T04:12:44.457Z,99.90
2019-05-07T04:15:16.678Z,99.90
2019-05-07T04:17:44.549Z,99.90
2019-05-07T04:20:13.831Z,99.90
2019-05-07T04:22:43.441Z,99.90
2019-05-07T04:25:46.867Z,99.90
2019-05-07T04:28:26.997Z,99.90
2019-05-07T04:30:57.010Z,99.90
2019-05-07T04:33:29.021Z,99.90
2019-05-07T04:36:16.186Z,99.90
2019-05-07T04:38:45.052Z,99.90
2019-05-07T04:41:14.179Z,99.90
2019-05-07T04:43:43.617Z,99.90
2019-05-07T04:46:14.377Z,99.90
2019-05-07T04:48:44.142Z,99.90
2019-05-07T04:51:15.338Z,99.90
2019-05-07T04:53:44.236Z,99.90
2019-05-07T04:56:14.090Z,99.90
2019-05-07T04:58:43.542Z,99.90
2019-05-07T05:01:14.159Z,99.90
2019-05-07T05:03:43.809Z,99.90
2019-05-07T05:06:13.620Z,99.90
2019-05-07T05:08:43.629Z,99.90
2019-05-07T05:11:13.026Z,99.90
2019-05-07T05:13:44.536Z,99.90
2019-05-07T05:16:26.344Z,99.90
2019-05-07T05:18:56.285Z,99.90
2019-05-07T05:21:42.564Z,99.90
2019-05-07T05:24:15.120Z,99.90
2019-05-07T05:26:44.047Z,99.90
2019-05-07T05:29:12.873Z,99.90
2019-05-07T05:31:42.280Z,99.90
2019-05-07T05:34:13.000Z,99.90
2019-05-07T05:36:42.639Z,99.90
2019-05-07T05:39:13.109Z,99.90
2019-05-07T05:41:44.373Z,99.90
2019-05-07T05:44:22.806Z,99.90
2019-05-07T05:46:52.480Z,99.90
2019-05-07T05:49:22.936Z,99.90
2019-05-07T05:52:05.004Z,99.90
2019-05-07T05:54:38.130Z,99.90
2019-05-07T05:57:23.283Z,99.90
2019-05-07T06:00:02.483Z,99.90
2019-05-07T06:03:05.659Z,99.90
2019-05-07T06:05:52.741Z,99.90
2019-05-07T06:08:40.244Z,99.90
2019-05-07T06:11:25.756Z,99.90
2019-05-07T06:14:05.798Z,99.90
2019-05-07T06:16:38.211Z,99.90
2019-05-07T06:19:15.200Z,99.90
2019-05-07T06:22:02.256Z,99.90
2019-05-07T06:24:39.730Z,99.90
2019-05-07T06:27:08.617Z,99.90
2019-05-07T06:29:37.513Z,99.90
2019-05-07T06:32:08.438Z,99.90
2019-05-07T06:34:37.411Z,99.90
2019-05-07T06:37:06.383Z,99.90
2019-05-07T06:39:42.403Z,99.90
2019-05-07T06:42:29.184Z,99.90
2019-05-07T06:45:05.446Z,99.90
2019-05-07T06:47:34.299Z,99.90
2019-05-07T06:50:03.319Z,99.90
2019-05-07T06:52:32.135Z,99.90
2019-05-07T06:55:03.187Z,99.90
2019-05-07T06:57:33.064Z,99.90
2019-05-07T07:00:07.833Z,99.90
2019-05-07T07:02:46.613Z,99.90
2019-05-07T07:05:34.862Z,99.90
2019-05-07T07:08:09.553Z,99.90
2019-05-07T07:11:02.648Z,99.90
2019-05-07T07:13:32.143Z,99.90
2019-05-07T07:16:01.953Z,99.90
2019-05-07T07:18:32.300Z,99.90
2019-05-07T07:21:02.291Z,99.90
2019-05-07T07:23:32.339Z,99.90
2019-05-07T07:26:03.173Z,99.90
2019-05-07T07:28:32.825Z,99.90
2019-05-07T07:31:12.966Z,99.90
2019-05-07T07:33:43.683Z,99.90
2019-05-07T07:36:12.749Z,99.90
2019-05-07T07:38:42.095Z,99.90
2019-05-07T07:41:26.682Z,99.90
2019-05-07T07:43:55.596Z,99.90
2019-05-07T07:46:24.575Z,99.90
2019-05-07T07:49:07.213Z,99.90
2019-05-07T07:51:37.785Z,99.90
2019-05-07T07:53:54.767Z,99.90
2019-05-07T07:56:49.985Z,99.90
2019-05-07T07:59:37.588Z,99.90
2019-05-07T08:02:14.696Z,99.90
2019-05-07T08:04:43.532Z,99.90
2019-05-07T08:07:12.624Z,99.90
2019-05-07T08:09:42.753Z,99.90
2019-05-07T08:12:12.736Z,99.90
2019-05-07T08:14:42.659Z,99.90
2019-05-07T08:17:13.003Z,99.90
2019-05-07T08:19:42.855Z,99.90
2019-05-07T08:22:12.252Z,99.90
2019-05-07T08:24:42.577Z,99.90
2019-05-07T08:27:14.676Z,99.90
2019-05-07T08:29:43.119Z,99.90
2019-05-07T08:32:32.668Z,99.90
2019-05-07T08:35:14.150Z,99.90
2019-05-07T08:37:42.689Z,99.90
2019-05-07T08:40:12.857Z,99.90
2019-05-07T08:42:41.998Z,99.90
2019-05-07T08:45:33.285Z,99.90
2019-05-07T08:48:05.494Z,99.90
2019-05-07T08:50:34.394Z,99.90
2019-05-07T08:53:03.352Z,99.30
2019-05-07T08:55:32.335Z,98.80
2019-05-07T08:58:02.196Z,97.70
2019-05-07T09:00:32.560Z,97.10
2019-05-07T09:03:01.788Z,97.60
2019-05-07T09:05:33.742Z,98.30
2019-05-07T09:08:02.628Z,98.60
2019-05-07T09:10:32.461Z,97.10
2019-05-07T09:13:04.347Z,96.80
2019-05-07T09:15:33.429Z,96.00
2019-05-07T09:18:02.396Z,96.30
2019-05-07T09:20:32.204Z,96.60
2019-05-07T09:23:02.095Z,96.80
2019-05-07T09:25:33.430Z,96.70
2019-05-07T09:28:02.699Z,97.00
2019-05-07T09:30:53.928Z,97.30
2019-05-07T09:33:27.798Z,97.30
2019-05-07T09:35:56.602Z,97.50
2019-05-07T09:38:25.431Z,97.10
2019-05-07T09:40:56.883Z,96.70
2019-05-07T09:43:25.093Z,96.30
2019-05-07T09:45:53.964Z,96.70
2019-05-07T09:48:22.956Z,95.90
2019-05-07T09:50:53.035Z,94.50
2019-05-07T09:53:22.831Z,94.40
2019-05-07T09:55:51.926Z,93.70
2019-05-07T09:58:35.267Z,93.20
2019-05-07T10:00:51.957Z,94.10
2019-05-07T10:03:22.689Z,94.60
2019-05-07T10:05:51.903Z,95.10
2019-05-07T10:08:20.906Z,95.10
2019-05-07T10:10:51.253Z,95.10
2019-05-07T10:13:38.749Z,94.10
2019-05-07T10:16:07.901Z,94.50
2019-05-07T10:18:36.975Z,95.30
2019-05-07T10:21:05.920Z,94.80
2019-05-07T10:23:35.038Z,95.10
2019-05-07T10:26:04.608Z,94.30
2019-05-07T10:28:33.540Z,93.80
2019-05-07T10:31:02.432Z,93.50
2019-05-07T10:33:31.952Z,94.20
2019-05-07T10:36:02.111Z,94.40
2019-05-07T10:38:34.002Z,93.20
2019-05-07T10:41:02.999Z,93.30
2019-05-07T10:43:32.838Z,93.40
2019-05-07T10:46:20.472Z,92.70
2019-05-07T10:49:01.984Z,92.70
2019-05-07T10:51:34.122Z,93.30
2019-05-07T10:54:03.075Z,93.50
2019-05-07T10:56:32.632Z,93.70
2019-05-07T10:59:02.812Z,93.40
2019-05-07T11:01:43.273Z,92.90
2019-05-07T11:04:12.792Z,92.00
2019-05-07T11:06:41.923Z,92.30
2019-05-07T11:09:11.140Z,93.60
2019-05-07T11:11:42.336Z,92.40
2019-05-07T11:14:12.320Z,92.50
2019-05-07T11:16:48.301Z,92.30
2019-05-07T11:19:19.004Z,92.80
2019-05-07T11:21:48.373Z,92.10
2019-05-07T11:24:17.557Z,92.60
2019-05-07T11:26:46.567Z,91.30
2019-05-07T11:29:15.580Z,91.40
2019-05-07T11:31:44.608Z,93.50
2019-05-07T11:34:13.965Z,91.70
2019-05-07T11:36:43.070Z,90.80
2019-05-07T11:39:12.282Z,91.30
2019-05-07T11:41:56.708Z,91.40
2019-05-07T11:44:27.938Z,90.90
2019-05-07T11:47:15.328Z,90.60
2019-05-07T11:50:17.591Z,89.80
2019-05-07T11:52:53.203Z,91.10
2019-05-07T11:55:22.606Z,88.50
2019-05-07T11:57:52.032Z,90.80
2019-05-07T12:00:32.129Z,89.90
2019-05-07T12:03:02.261Z,87.10
2019-05-07T12:05:33.180Z,86.20
2019-05-07T12:08:02.445Z,87.80
2019-05-07T12:10:32.777Z,90.40
2019-05-07T12:13:02.516Z,90.20
2019-05-07T12:15:32.366Z,92.00
2019-05-07T12:18:03.110Z,92.10
2019-05-07T12:20:32.567Z,92.60
2019-05-07T12:23:02.842Z,92.50
2019-05-07T12:25:32.258Z,93.10
2019-05-07T12:28:02.402Z,92.90
2019-05-07T12:30:51.757Z,93.10
2019-05-07T12:33:39.936Z,93.10
2019-05-07T12:36:12.575Z,93.30
2019-05-07T12:38:41.771Z,93.80
2019-05-07T12:41:28.810Z,93.80
2019-05-07T12:43:58.566Z,93.50
2019-05-07T12:46:27.990Z,94.20
2019-05-07T12:48:57.081Z,94.40
2019-05-07T12:51:36.274Z,93.40
2019-05-07T12:54:05.452Z,94.30
2019-05-07T12:56:34.686Z,94.20
2019-05-07T12:59:03.654Z,94.40
2019-05-07T13:01:42.234Z,95.60
2019-05-07T13:04:14.432Z,95.30
2019-05-07T13:06:56.262Z,95.00
2019-05-07T13:09:33.978Z,95.60
2019-05-07T13:12:03.132Z,96.00
2019-05-07T13:14:32.272Z,95.30
2019-05-07T13:17:02.783Z,94.80
2019-05-07T13:19:33.023Z,94.90
2019-05-07T13:22:02.496Z,94.30
2019-05-07T13:24:33.102Z,93.30
2019-05-07T13:27:03.254Z,92.80
2019-05-07T13:29:32.749Z,92.90
2019-05-07T13:32:03.756Z,92.10
2019-05-07T13:34:34.969Z,92.70
2019-05-07T13:37:12.624Z,93.20
2019-05-07T13:39:52.124Z,93.50
2019-05-07T13:42:58.554Z,92.10
2019-05-07T13:45:44.791Z,93.00
2019-05-07T13:48:17.355Z,94.10
2019-05-07T13:50:46.578Z,93.50
2019-05-07T13:53:15.841Z,94.00
2019-05-07T13:55:44.943Z,94.10
2019-05-07T13:58:14.851Z,94.20
2019-05-07T14:00:51.818Z,93.80
2019-05-07T14:03:22.663Z,93.50
2019-05-07T14:05:51.710Z,93.30
2019-05-07T14:08:23.023Z,93.40
2019-05-07T14:10:52.777Z,93.50
2019-05-07T14:13:22.418Z,93.90
2019-05-07T14:16:08.052Z,93.60
2019-05-07T14:18:38.631Z,93.00
2019-05-07T14:21:08.398Z,92.80
2019-05-07T14:23:37.861Z,92.90
2019-05-07T14:26:06.971Z,93.30
2019-05-07T14:28:35.889Z,93.40
2019-05-07T14:31:04.983Z,93.90
2019-05-07T14:34:02.862Z,94.10
2019-05-07T14:36:43.219Z,93.50
2019-05-07T14:39:12.441Z,93.20
2019-05-07T14:41:42.755Z,93.20
2019-05-07T14:44:14.166Z,92.80
2019-05-07T14:46:50.301Z,92.90
2019-05-07T14:49:13.854Z,92.30
2019-05-07T14:51:42.958Z,93.00
2019-05-07T14:54:12.373Z,93.10
2019-05-07T14:56:42.814Z,94.00
2019-05-07T14:59:12.779Z,92.90
2019-05-07T15:01:42.984Z,93.00
2019-05-07T15:04:14.188Z,94.20
2019-05-07T15:06:42.893Z,94.90
2019-05-07T15:09:12.225Z,94.40
2019-05-07T15:11:42.520Z,94.20
2019-05-07T15:14:12.362Z,93.20
2019-05-07T15:16:42.687Z,94.00
2019-05-07T15:19:12.494Z,94.30
2019-05-07T15:21:42.601Z,94.80
2019-05-07T15:24:13.959Z,94.50
2019-05-07T15:26:42.988Z,95.10
2019-05-07T15:29:13.768Z,95.60
2019-05-07T15:31:58.175Z,94.80
2019-05-07T15:34:27.129Z,96.10
2019-05-07T15:36:56.293Z,97.20
2019-05-07T15:39:25.428Z,98.00
2019-05-07T15:41:54.488Z,97.00
2019-05-07T15:44:23.470Z,97.90
2019-05-07T15:46:54.704Z,96.90
2019-05-07T15:49:23.631Z,97.40
2019-05-07T15:51:54.357Z,97.90
2019-05-07T15:54:23.279Z,97.80
2019-05-07T15:56:54.443Z,96.80
2019-05-07T15:59:23.410Z,97.40
2019-05-07T16:01:54.854Z,97.80
2019-05-07T16:04:25.927Z,97.50
2019-05-07T16:06:55.568Z,97.70
2019-05-07T16:09:26.231Z,97.90
2019-05-07T16:11:55.181Z,98.80
2019-05-07T16:14:26.886Z,97.60
2019-05-07T16:17:18.057Z,96.80
2019-05-07T16:19:46.980Z,97.00
2019-05-07T16:22:22.732Z,96.70
2019-05-07T16:24:51.785Z,97.30
2019-05-07T16:27:22.394Z,97.00
2019-05-07T16:29:52.630Z,97.90
2019-05-07T16:32:23.900Z,97.30
2019-05-07T16:34:52.794Z,96.70
2019-05-07T16:37:21.850Z,96.20
2019-05-07T16:39:52.569Z,96.60
2019-05-07T16:42:21.804Z,97.20
2019-05-07T16:44:52.319Z,96.20
2019-05-07T16:47:22.823Z,97.30
2019-05-07T16:49:51.936Z,96.70
2019-05-07T16:52:22.443Z,96.50
2019-05-07T16:54:52.193Z,97.20
2019-05-07T16:57:42.548Z,97.10
2019-05-07T17:00:15.759Z,97.10
2019-05-07T17:02:46.606Z,96.80
2019-05-07T17:05:15.871Z,97.30
2019-05-07T17:08:10.137Z,97.30
2019-05-07T17:10:39.033Z,97.10
2019-05-07T17:13:09.829Z,97.10
2019-05-07T17:15:54.908Z,97.40
2019-05-07T17:18:25.205Z,97.60
2019-05-07T17:20:54.713Z,97.30
2019-05-07T17:23:23.957Z,97.30
2019-05-07T17:25:53.117Z,97.10
2019-05-07T17:28:22.860Z,97.30
2019-05-07T17:30:52.525Z,97.50
2019-05-07T17:33:22.984Z,97.70
2019-05-07T17:35:52.240Z,98.10
2019-05-07T17:38:23.075Z,97.50
2019-05-07T17:40:52.408Z,97.50
2019-05-07T17:43:21.953Z,97.40
2019-05-07T17:45:52.302Z,98.70
2019-05-07T17:48:23.294Z,97.90
2019-05-07T17:51:23.752Z,98.50
2019-05-07T17:53:59.390Z,98.60
2019-05-07T17:56:24.747Z,98.40
2019-05-07T17:58:53.632Z,98.50
2019-05-07T18:01:29.449Z,98.40
2019-05-07T18:03:58.381Z,98.60
2019-05-07T18:06:27.291Z,98.60
2019-05-07T18:08:56.207Z,99.10
2019-05-07T18:11:25.443Z,98.80
2019-05-07T18:13:54.518Z,98.60
2019-05-07T18:16:52.690Z,98.60
2019-05-07T18:19:22.238Z,99.10
2019-05-07T18:21:52.434Z,99.30
2019-05-07T18:24:22.411Z,99.10
2019-05-07T18:26:52.595Z,99.50
2019-05-07T18:29:22.493Z,99.40
2019-05-07T18:31:55.470Z,99.60
2019-05-07T18:34:24.417Z,99.70
2019-05-07T18:36:53.442Z,99.90
2019-05-07T18:39:22.382Z,99.90
2019-05-07T18:41:52.298Z,99.90
2019-05-07T18:44:22.343Z,99.90
2019-05-07T18:46:52.844Z,99.90
2019-05-07T18:49:22.171Z,99.90
2019-05-07T18:51:52.140Z,99.90
2019-05-07T18:54:29.893Z,99.90
2019-05-07T18:56:52.911Z,99.90
2019-05-07T18:59:24.118Z,99.90
2019-05-07T19:01:53.003Z,99.90
2019-05-07T19:04:22.102Z,99.90
2019-05-07T19:06:51.786Z,99.90
2019-05-07T19:09:22.498Z,99.90
2019-05-07T19:11:52.413Z,99.90
2019-05-07T19:14:22.684Z,99.90
2019-05-07T19:16:52.621Z,99.90
2019-05-07T19:19:22.271Z,99.90
2019-05-07T19:21:52.989Z,99.90
2019-05-07T19:24:25.832Z,99.90
2019-05-07T19:26:53.041Z,99.90
2019-05-07T19:29:23.289Z,99.90
2019-05-07T19:31:52.673Z,99.90
2019-05-07T19:34:21.957Z,99.90
2019-05-07T19:36:51.982Z,99.90
2019-05-07T19:39:23.318Z,99.90
2019-05-07T19:41:52.358Z,99.90
2019-05-07T19:44:21.579Z,99.90
2019-05-07T19:46:52.446Z,99.90
2019-05-07T19:49:21.021Z,99.90
2019-05-07T19:51:52.207Z,99.90
2019-05-07T19:54:22.608Z,99.90
2019-05-07T19:56:51.912Z,99.90
2019-05-07T19:59:22.236Z,99.90
2019-05-07T20:01:55.897Z,99.90
2019-05-07T20:04:24.962Z,99.90
2019-05-07T20:06:54.018Z,99.90
2019-05-07T20:09:27.032Z,99.90
2019-05-07T20:11:56.056Z,99.90
2019-05-07T20:14:25.021Z,99.90
2019-05-07T20:16:53.999Z,99.90
2019-05-07T20:19:23.166Z,99.90
2019-05-07T20:21:52.484Z,99.90
2019-05-07T20:24:22.070Z,99.90
2019-05-07T20:26:52.698Z,99.90
2019-05-07T20:29:22.872Z,99.90
2019-05-07T20:31:53.233Z,99.90
2019-05-07T20:34:22.591Z,99.90
2019-05-07T20:36:51.887Z,99.90
2019-05-07T20:39:23.130Z,99.90
2019-05-07T20:41:52.650Z,99.90
2019-05-07T20:44:21.741Z,99.90
2019-05-07T20:46:50.757Z,99.90
2019-05-07T20:49:19.590Z,99.90
2019-05-07T20:51:48.618Z,99.90
2019-05-07T20:54:27.235Z,99.90
2019-05-07T20:57:02.260Z,99.90
2019-05-07T20:59:32.737Z,99.90
2019-05-07T21:02:02.492Z,99.90
2019-05-07T21:04:33.013Z,99.90
2019-05-07T21:07:02.412Z,99.90
2019-05-07T21:09:32.806Z,99.90
2019-05-07T21:12:02.110Z,99.90
2019-05-07T21:14:32.456Z,99.90
2019-05-07T21:17:01.701Z,99.90
2019-05-07T21:19:32.843Z,99.90
2019-05-07T21:22:02.209Z,99.90
2019-05-07T21:24:33.082Z,99.90
2019-05-07T21:27:02.629Z,99.90
2019-05-07T21:29:32.666Z,99.90
2019-05-07T21:32:03.312Z,99.90
2019-05-07T21:34:33.033Z,99.90
2019-05-07T21:37:03.256Z,99.90
2019-05-07T21:39:32.971Z,99.90
2019-05-07T21:42:02.104Z,99.90
2019-05-07T21:44:32.546Z,99.90
2019-05-07T21:47:03.909Z,99.90
2019-05-07T21:49:32.386Z,99.90
2019-05-07T21:52:01.972Z,99.90
2019-05-07T21:54:59.435Z,99.90
2019-05-07T21:57:44.948Z,99.90
2019-05-07T22:00:22.099Z,99.90
2019-05-07T22:02:52.599Z,99.90
2019-05-07T22:05:22.402Z,99.90
2019-05-07T22:07:54.183Z,99.90
2019-05-07T22:10:22.476Z,99.90
2019-05-07T22:12:52.011Z,99.90
2019-05-07T22:15:22.547Z,99.90
2019-05-07T22:17:52.071Z,99.90
2019-05-07T22:20:21.112Z,99.90
2019-05-07T22:22:52.035Z,99.90
2019-05-07T22:25:22.272Z,99.90
2019-05-07T22:27:53.001Z,99.90
2019-05-07T22:30:28.674Z,99.90
2019-05-07T22:33:05.742Z,99.90
2019-05-07T22:35:38.542Z,99.90
2019-05-07T22:38:07.385Z,99.90
2019-05-07T22:40:36.363Z,99.90
2019-05-07T22:43:05.226Z,99.90
2019-05-07T22:45:34.341Z,99.90
2019-05-07T22:48:03.291Z,99.90
2019-05-07T22:50:33.158Z,99.90
2019-05-07T22:53:02.189Z,99.90
2019-05-07T22:55:32.686Z,99.90
2019-05-07T22:58:17.878Z,99.90
2019-05-07T23:00:57.490Z,99.90
2019-05-07T23:03:26.347Z,99.90
2019-05-07T23:05:56.999Z,99.90
2019-05-07T23:08:25.953Z,99.90
2019-05-07T23:10:54.807Z,99.90
2019-05-07T23:13:23.671Z,99.90
2019-05-07T23:15:53.837Z,99.90
2019-05-07T23:18:22.932Z,99.90
2019-05-07T23:20:52.673Z,99.90
2019-05-07T23:23:21.900Z,99.90
2019-05-07T23:25:52.402Z,99.90
2019-05-07T23:28:22.921Z,99.90
2019-05-07T23:30:51.999Z,99.90
2019-05-07T23:33:22.642Z,99.90
2019-05-07T23:35:52.761Z,99.90
2019-05-07T23:38:22.544Z,99.90
2019-05-07T23:41:09.893Z,99.90
2019-05-07T23:43:38.946Z,99.90
2019-05-07T23:46:07.873Z,99.90
2019-05-07T23:48:36.761Z,99.90
2019-05-07T23:51:05.657Z,99.90
2019-05-07T23:53:34.505Z,99.90
2019-05-07T23:56:03.389Z,99.90
2019-05-07T23:58:32.705Z,99.90
